Miguel Oliver — ECLX — position and weather

sailwx.info

Track history (hours):
 
Tides and Currents Weather Stations Pressure Air Temp Water Temp Dewpoint Dewpoint Depression Visibility Wind Speed Wind Dir Waves Ship Positions

Oceanographic research ship Miguel Oliver (Spain)

Ship's website: http://www.mapa.es/es/pesca/pags/miguel_web/index.htm

Last reported at 2016-Feb-01 00:22 UTC. Time now 2016-Feb-10 22:11 UTC.
Position N 43°28' W 001°52'.
Warning: this ship's position is 9 days out of date.

Length 70 m; draft 4.8 m.

Type: Other ship. MMSI: 225322000.

Date/timePositionNaut miles runAvg speedWind from/ knotsBaromVisibWave heightAir tempDewpointWater temp
2016-Feb-01 00:22N 43°28' W 001°52'2 0.2
2016-Jan-31 12:30N 43°28' W 001°55'2 0.1
2016-Jan-31 01:07N 43°28' W 001°52'1 1.1
2016-Jan-31 00:33N 43°29' W 001°53'2 0.2
2016-Jan-30 13:22N 43°29' W 001°50'2 2.3
2016-Jan-30 12:32N 43°29' W 001°53'2 0.3
2016-Jan-30 03:22N 43°29' W 001°49'5 5.4
2016-Jan-30 02:24N 43°29' W 001°57'8 0.8
2016-Jan-29 16:32N 43°29' W 001°46'1 1.2
2016-Jan-29 15:33N 43°30' W 001°48'0 0.0
2016-Jan-29 05:07N 43°30' W 001°48'0 0.5
2016-Jan-29 04:33N 43°30' W 001°48'0 0.0
2016-Jan-28 17:30N 43°30' W 001°48'1 1.4
2016-Jan-28 16:31N 43°30' W 001°50'3 0.2
2016-Jan-28 04:33N 43°31' W 001°46'6 6.1
2016-Jan-28 03:33N 43°31' W 001°55'3 0.2
2016-Jan-27 16:22N 43°31' W 001°51'1 1.1
2016-Jan-27 15:32N 43°31' W 001°50'0 0.0
2016-Jan-27 14:34N 43°31' W 001°50'3 2.7
2016-Jan-27 13:30N 43°31' W 001°54'1 0.1
2016-Jan-27 01:10N 43°31' W 001°55'7 3.8
2016-Jan-26 23:24N 43°31' W 001°46'3 3.7
2016-Jan-26 22:33N 43°34' W 001°47'2 0.9
2016-Jan-26 20:31N 43°35' W 001°50'2 0.3
2016-Jan-26 14:09N 43°34' W 001°47'2 3.3
2016-Jan-26 13:34N 43°34' W 001°50'2 0.7
2016-Jan-26 10:17N 43°34' W 001°47'0 0.1
2016-Jan-26 05:17N 43°33' W 001°47'5 5.5
2016-Jan-26 04:23N 43°33' W 001°54'4 1.7
2016-Jan-26 02:15N 43°33' W 001°49'2 2.1
2016-Jan-26 01:23N 43°33' W 001°47'5 6.2
2016-Jan-26 00:33N 43°33' W 001°54'4 3.2
2016-Jan-25 23:19N 43°33' W 001°59'8 4.3
2016-Jan-25 21:32N 43°33' W 001°49'3 3.0
2016-Jan-25 20:31N 43°33' W 001°53'6 5.4
2016-Jan-25 19:29N 43°32' W 002°01'5 5.8
2016-Jan-25 18:32N 43°32' W 001°53'4 4.5
2016-Jan-25 17:33N 43°32' W 001°47'7 6.3
2016-Jan-25 16:24N 43°32' W 001°57'4 1.9
2016-Jan-25 14:33N 43°32' W 001°52'4 2.7
2016-Jan-25 13:10N 43°32' W 001°47'2 3.2
2016-Jan-25 12:33N 43°32' W 001°50'2 1.7
2016-Jan-25 11:27N 43°32' W 001°52'1 0.4
2016-Jan-25 08:28N 43°32' W 001°51'3 2.3
2016-Jan-25 07:21N 43°32' W 001°47'1 0.7
2016-Jan-25 06:32N 43°32' W 001°46'2 0.5
2016-Jan-25 01:30N 43°31' W 001°50'2 2.4
2016-Jan-25 00:33N 43°31' W 001°47'1 1.5
2016-Jan-24 23:33N 43°31' W 001°49'18 1.5
2016-Jan-24 11:14N 43°32' W 002°13'2 2.3
2016-Jan-24 10:16N 43°32' W 002°17'5 6.3
2016-Jan-24 09:29N 43°32' W 002°23'5 2.2
2016-Jan-24 07:24N 43°32' W 002°30'12 2.8
2016-Jan-24 03:05N 43°32' W 002°13'3 5.8
2016-Jan-24 02:31N 43°32' W 002°08'5 1.3
2016-Jan-23 22:25N 43°32' W 002°16'0 0.1
2016-Jan-23 21:10N 43°33' W 002°15'4 5.5
2016-Jan-23 20:28N 43°33' W 002°21'  
Track history (hours):
 
Tides and Currents Weather Stations Pressure Air Temp Water Temp Dewpoint Dewpoint Depression Visibility Wind Speed Wind Dir Waves Ship Positions

Oceanographic research ship Miguel Oliver (Spain)

Ship's website: http://www.mapa.es/es/pesca/pags/miguel_web/index.htm

Last reported at 2016-Feb-01 00:22 UTC. Time now 2016-Feb-10 22:11 UTC.
Position N 43°28' W 001°52'.
Warning: this ship's position is 9 days out of date.

Length 70 m; draft 4.8 m.

Type: Other ship. MMSI: 225322000.

Date/timePositionNaut miles runAvg speedWind from/ knotsBaromVisibWave heightAir tempDewpointWater temp
2016-Feb-01 00:22N 43°28' W 001°52'2 0.2
2016-Jan-31 12:30N 43°28' W 001°55'2 0.1
2016-Jan-31 01:07N 43°28' W 001°52'1 1.1
2016-Jan-31 00:33N 43°29' W 001°53'2 0.2
2016-Jan-30 13:22N 43°29' W 001°50'2 2.3
2016-Jan-30 12:32N 43°29' W 001°53'2 0.3
2016-Jan-30 03:22N 43°29' W 001°49'5 5.4
2016-Jan-30 02:24N 43°29' W 001°57'8 0.8
2016-Jan-29 16:32N 43°29' W 001°46'1 1.2
2016-Jan-29 15:33N 43°30' W 001°48'0 0.0
2016-Jan-29 05:07N 43°30' W 001°48'0 0.5
2016-Jan-29 04:33N 43°30' W 001°48'0 0.0
2016-Jan-28 17:30N 43°30' W 001°48'1 1.4
2016-Jan-28 16:31N 43°30' W 001°50'3 0.2
2016-Jan-28 04:33N 43°31' W 001°46'6 6.1
2016-Jan-28 03:33N 43°31' W 001°55'3 0.2
2016-Jan-27 16:22N 43°31' W 001°51'1 1.1
2016-Jan-27 15:32N 43°31' W 001°50'0 0.0
2016-Jan-27 14:34N 43°31' W 001°50'3 2.7
2016-Jan-27 13:30N 43°31' W 001°54'1 0.1
2016-Jan-27 01:10N 43°31' W 001°55'7 3.8
2016-Jan-26 23:24N 43°31' W 001°46'3 3.7
2016-Jan-26 22:33N 43°34' W 001°47'2 0.9
2016-Jan-26 20:31N 43°35' W 001°50'2 0.3
2016-Jan-26 14:09N 43°34' W 001°47'2 3.3
2016-Jan-26 13:34N 43°34' W 001°50'2 0.7
2016-Jan-26 10:17N 43°34' W 001°47'0 0.1
2016-Jan-26 05:17N 43°33' W 001°47'5 5.5
2016-Jan-26 04:23N 43°33' W 001°54'4 1.7
2016-Jan-26 02:15N 43°33' W 001°49'2 2.1
2016-Jan-26 01:23N 43°33' W 001°47'5 6.2
2016-Jan-26 00:33N 43°33' W 001°54'4 3.2
2016-Jan-25 23:19N 43°33' W 001°59'8 4.3
2016-Jan-25 21:32N 43°33' W 001°49'3 3.0
2016-Jan-25 20:31N 43°33' W 001°53'6 5.4
2016-Jan-25 19:29N 43°32' W 002°01'5 5.8
2016-Jan-25 18:32N 43°32' W 001°53'4 4.5
2016-Jan-25 17:33N 43°32' W 001°47'7 6.3
2016-Jan-25 16:24N 43°32' W 001°57'4 1.9
2016-Jan-25 14:33N 43°32' W 001°52'4 2.7
2016-Jan-25 13:10N 43°32' W 001°47'2 3.2
2016-Jan-25 12:33N 43°32' W 001°50'2 1.7
2016-Jan-25 11:27N 43°32' W 001°52'1 0.4
2016-Jan-25 08:28N 43°32' W 001°51'3 2.3
2016-Jan-25 07:21N 43°32' W 001°47'1 0.7
2016-Jan-25 06:32N 43°32' W 001°46'2 0.5
2016-Jan-25 01:30N 43°31' W 001°50'2 2.4
2016-Jan-25 00:33N 43°31' W 001°47'1 1.5
2016-Jan-24 23:33N 43°31' W 001°49'18 1.5
2016-Jan-24 11:14N 43°32' W 002°13'2 2.3
2016-Jan-24 10:16N 43°32' W 002°17'5 6.3
2016-Jan-24 09:29N 43°32' W 002°23'5 2.2
2016-Jan-24 07:24N 43°32' W 002°30'12 2.8
2016-Jan-24 03:05N 43°32' W 002°13'3 5.8
2016-Jan-24 02:31N 43°32' W 002°08'5 1.3
2016-Jan-23 22:25N 43°32' W 002°16'0 0.1
2016-Jan-23 21:10N 43°33' W 002°15'4 5.5
2016-Jan-23 20:28N 43°33' W 002°21'  

Dump ship's entire track history